Bloomingport, Indiana
Current Conditions -  °F | °C
As of 9:35 AM on Saturday 25 Oct 2014 (Local Time) from KVES Reporting Station
Broken Clouds Broken Clouds  
Wind Chill: 55°   Ceiling: 5000
Heat Index: 55°   Visibility: 10mi
Dew Point: 52°   Wind: 9mph
Humidity: 88%   Direction: 250°WSW
Pressure: 29.95"   Gusts: NA
Location:  40.0606°N, 84.9258°W
Report Text: KVES 251335Z AUTO 25008KT 10SM SCT025 SCT034 BKN050 13/11 A2995 RMK AO2
Loading
Personal Weather Stations






























Interactive Weather Map
Tropical Storm Tracking
New forecast layout! Learn more

10-Day Weather Forecast

Advertisements
Track Severe Weather on mobile